Главная страница
METAR-TAF:

METAR-TAF

Аэропорты :

Му-и-Рана, Норвегия

широта: 66-22N, долгота: 014-18E, высота над уровнем моря: 7 м

Текущие метеонаблюдения

Эта сводка был подготовлена 4 часа и 18 минут назад, в 21:50 UTC
Ветер 3 Узел переменных направлений
Температура 1°C
Влажность 93%
Давление 1002 hPa
Видимость 10 км и более
небольшая облачность на высоте 2500 фута
Рассеянная облачность на высоте 3500 фута
небольшой дождь

METAR: ENRA 212150Z VRB03KT 9999 -RA FEW025 BKN035 01/00 Q1002

Время: 04:08 (02:08 UTC)

Прогноз

Эта сводка был подготовлена 9 часа и 8 минут назад, в 17:00 UTC
Прогноз действительный с 21-го 18 UTC до 21-го 22 UTC
Ветер 5 Узел переменных направлений
Видимость 10 км и более
небольшая облачность на высоте 1500 фута
Рассеянная облачность на высоте 3000 фута
временами
С 21-го 18 UTC до 21-го 22 UTC
Видимость: 1200 м
на высоте 800 фута
ливневые снегопады

TAF: ENRA 211700Z 2118/2122 VRB05KT 9999 FEW015 BKN030 TEMPO 2118/2122 1200 SHSN VV008

Метеонаблюдения и прогнозы для более 4000 аэропортов (сводки METAR и TAF).

Имеющиеся станции представлены на карте желтыми и красными точками.

Чтобы увидеть название станции, наведите на нее мышь.

Затем щелкните, чтобы увидеть метеонаблюдения и метеопрогнозы.

Управление картой: чтобы увеличить масштаб, щелкните зеленые кнопки с черным крестиком; чтобы уменьшить масштаб, щелкните зеленую кнопку с тире; для просмотра соседних карт щелкайте зеленые стрелки.


METAR-TAF: